Time;durP1;ratioP1;P1;durP2;ratioP2;P2;SDS_P1;SDS_P2;PMS_P1;PMS_P2;Temp;Humidity;BMP_temperature;BMP_pressure;BME280_temperature;BME280_humidity;BME280_pressure;Samples;Min_cycle;Max_cycle;Signal;HPM_P1;HPM_P2
2021/12/08 00:00:47;;;;;;;4.90;2.63;;;;;;;;;;5081895;28;20051;-77
2021/12/08 00:03:14;;;;;;;7.80;2.75;;;;;;;;;;5085936;28;20075;-78
2021/12/08 00:05:41;;;;;;;6.57;2.70;;;;;;;;;;5092960;28;20116;-78
2021/12/08 00:08:08;;;;;;;7.15;2.85;;;;;;;;;;5077189;28;20024;-78
2021/12/08 00:13:07;;;;;;;6.38;2.88;;;;;;;;;;5093016;28;20230;-78
2021/12/08 00:15:41;;;;;;;7.57;2.83;;;2.70;99.90;;;;;;5074515;28;20039;-78
2021/12/08 00:18:13;;;;;;;8.60;3.13;;;;;;;;;;5079576;28;20027;-78
2021/12/08 00:20:41;;;;;;;6.20;2.92;;;2.80;99.90;;;;;;5093776;28;20388;-78
2021/12/08 00:23:08;;;;;;;8.65;3.13;;;2.80;99.90;;;;;;5083864;28;20090;-79
2021/12/08 00:25:35;;;;;;;7.47;3.40;;;;;;;;;;5081447;28;20028;-78
2021/12/08 00:28:02;;;;;;;6.60;2.47;;;2.80;99.90;;;;;;5075871;28;20040;-78
2021/12/08 00:30:29;;;;;;;3.95;2.83;;;;;;;;;;5094851;28;20036;-78
2021/12/08 00:32:57;;;;;;;6.50;2.75;;;;;;;;;;5073003;28;20020;-78
2021/12/08 00:35:23;;;;;;;9.90;3.72;;;;;;;;;;5081991;28;20091;-79
2021/12/08 00:37:50;;;;;;;9.32;2.53;;;;;;;;;;5098844;28;20051;-78
2021/12/08 00:40:17;;;;;;;10.73;3.85;;;;;;;;;;5089412;28;20024;-78
2021/12/08 00:42:44;;;;;;;5.82;3.22;;;;;;;;;;5096278;28;20020;-79
2021/12/08 00:45:11;;;;;;;7.60;3.15;;;;;;;;;;5074114;28;20036;-78
2021/12/08 00:47:38;;;;;;;7.50;3.30;;;;;;;;;;5091838;28;20044;-79
2021/12/08 00:50:05;;;;;;;9.55;3.85;;;;;;;;;;5099349;28;20189;-79
2021/12/08 00:52:31;;;;;;;11.32;4.03;;;;;;;;;;5090499;28;20196;-79
2021/12/08 00:54:58;;;;;;;6.15;3.63;;;;;;;;;;5094426;28;20032;-79
2021/12/08 00:57:24;;;;;;;7.72;3.80;;;;;;;;;;5083628;28;20739;-79
2021/12/08 00:59:51;;;;;;;5.13;3.25;;;;;;;;;;5091490;28;20055;-79
2021/12/08 01:02:17;;;;;;;6.60;4.00;;;;;;;;;;5084061;28;20094;-79
2021/12/08 01:04:43;;;;;;;5.90;4.10;;;;;;;;;;5099347;28;20095;-79
2021/12/08 01:07:10;;;;;;;10.63;4.88;;;;;;;;;;5077701;28;20052;-79
2021/12/08 01:09:36;;;;;;;7.80;3.60;;;;;;;;;;5090940;28;20169;-79
2021/12/08 01:12:03;;;;;;;8.10;3.78;;;;;;;;;;5089331;28;20272;-79
2021/12/08 01:14:31;;;;;;;9.70;4.93;;;3.30;99.90;;;;;;5094282;28;20041;-79
2021/12/08 01:16:58;;;;;;;9.00;4.88;;;;;;;;;;5072678;28;20032;-79
2021/12/08 01:19:24;;;;;;;8.00;5.03;;;;;;;;;;5075958;28;20032;-79
2021/12/08 01:21:51;;;;;;;8.20;4.75;;;;;;;;;;5078562;28;20020;-79
2021/12/08 01:24:18;;;;;;;7.55;4.88;;;;;;;;;;5085050;28;20044;-79
2021/12/08 01:26:44;;;;;;;14.10;5.82;;;;;;;;;;5089997;28;20032;-79
2021/12/08 01:29:10;;;;;;;12.48;5.22;;;;;;;;;;5080620;28;20039;-79
2021/12/08 01:31:40;;;;;;;10.32;4.35;;;;;;;;;;5089009;28;20042;-79
2021/12/08 01:34:06;;;;;;;9.52;3.80;;;;;;;;;;5088901;28;20082;-79
2021/12/08 01:36:32;;;;;;;7.50;4.88;;;3.10;99.90;;;;;;5083984;28;20048;-80
2021/12/08 01:38:59;;;;;;;7.05;4.53;;;;;;;;;;5081442;28;20320;-79
2021/12/08 01:41:25;;;;;;;8.40;5.88;;;;;;;;;;5094804;28;20028;-79
2021/12/08 01:46:37;;;;;;;11.35;4.65;;;;;;;;;;5102914;28;20044;-79
2021/12/08 01:49:04;;;;;;;5.88;3.83;;;3.30;99.90;;;;;;5086990;28;20100;-79
2021/12/08 01:51:31;;;;;;;12.52;5.90;;;;;;;;;;5075812;28;20052;-79
2021/12/08 01:54:01;;;;;;;6.35;4.05;;;3.30;99.90;;;;;;5094892;28;20023;-79
2021/12/08 01:56:28;;;;;;;7.22;4.22;;;;;;;;;;5082048;28;20032;-79
2021/12/08 01:58:54;;;;;;;9.82;5.63;;;;;;;;;;5089088;28;20032;-79
2021/12/08 02:01:21;;;;;;;9.65;4.70;;;;;;;;;;5094473;28;20158;-79
2021/12/08 02:03:48;;;;;;;5.07;4.05;;;3.50;99.90;;;;;;5082665;28;20310;-79
2021/12/08 02:06:15;;;;;;;7.85;4.60;;;;;;;;;;5087168;28;20032;-79
2021/12/08 02:08:42;;;;;;;7.18;4.55;;;;;;;;;;5093531;28;20113;-79
2021/12/08 02:11:08;;;;;;;10.90;4.35;;;;;;;;;;5068908;28;20047;-79
2021/12/08 02:13:38;;;;;;;9.55;4.72;;;;;;;;;;5093517;28;20031;-78
2021/12/08 02:16:07;;;;;;;9.70;6.55;;;;;;;;;;5087602;28;20059;-78
2021/12/08 02:18:34;;;;;;;11.73;7.30;;;;;;;;;;5084597;28;20434;-78
2021/12/08 02:21:01;;;;;;;9.63;6.25;;;;;;;;;;5081169;28;20323;-78
2021/12/08 02:23:27;;;;;;;11.13;7.10;;;3.70;99.90;;;;;;5062799;28;20103;-78
2021/12/08 02:25:53;;;;;;;9.05;6.20;;;;;;;;;;5072487;28;20016;-79
2021/12/08 02:28:19;;;;;;;7.65;6.68;;;;;;;;;;5087356;28;20043;-79
2021/12/08 02:30:55;;;;;;;11.27;7.53;;;;;;;;;;5072390;28;20016;-78
2021/12/08 02:47:27;;;;;;;7.00;5.72;;;;;;;;;;5091297;28;20052;-78
2021/12/08 02:49:54;;;;;;;7.25;6.40;;;;;;;;;;5087617;28;20028;-78
2021/12/08 02:52:20;;;;;;;11.45;7.30;;;;;;;;;;5096425;28;20107;-79
2021/12/08 02:54:48;;;;;;;7.05;5.20;;;;;;;;;;5093446;28;20170;-79
2021/12/08 02:57:15;;;;;;;9.55;7.20;;;;;;;;;;5091403;28;20051;-79
2021/12/08 02:59:44;;;;;;;7.72;6.00;;;;;;;;;;5072949;28;20099;-79
2021/12/08 03:02:11;;;;;;;7.88;6.03;;;;;;;;;;5077614;28;20280;-79
2021/12/08 03:04:37;;;;;;;8.02;6.35;;;;;;;;;;5093697;28;20048;-79
2021/12/08 03:07:05;;;;;;;10.63;7.30;;;4.00;99.90;;;;;;5090933;28;20029;-80
2021/12/08 03:09:31;;;;;;;7.50;6.15;;;;;;;;;;5092231;28;20075;-79
2021/12/08 03:11:59;;;;;;;8.75;7.82;;;4.00;99.90;;;;;;5094436;28;20104;-79
2021/12/08 03:14:26;;;;;;;11.93;9.02;;;4.00;99.90;;;;;;5084057;28;20024;-79
2021/12/08 03:16:55;;;;;;;12.65;9.02;;;;;;;;;;5084074;28;20053;-80
2021/12/08 03:19:24;;;;;;;10.15;7.95;;;;;;;;;;5104994;28;20198;-79
2021/12/08 03:21:51;;;;;;;11.32;8.73;;;;;;;;;;5090395;28;20036;-80
2021/12/08 03:32:32;;;;;;;11.13;7.18;;;;;;;;;;5026220;28;20061;-79
2021/12/08 03:34:58;;;;;;;9.30;6.70;;;;;;;;;;5017726;28;20263;-79
2021/12/08 03:37:27;;;;;;;10.55;8.35;;;;;;;;;;5019767;28;20037;-79
2021/12/08 03:39:54;;;;;;;12.77;10.02;;;;;;;;;;5009122;28;20025;-79
2021/12/08 03:42:22;;;;;;;10.77;8.95;;;;;;;;;;5032512;28;20104;-79
2021/12/08 03:44:50;;;;;;;11.52;9.70;;;;;;;;;;5021540;28;20061;-79
2021/12/08 03:47:18;;;;;;;13.60;8.10;;;;;;;;;;5022515;28;20278;-79
2021/12/08 03:49:46;;;;;;;10.15;7.90;;;;;;;;;;5023732;28;20092;-80
2021/12/08 03:52:12;;;;;;;10.90;8.80;;;;;;;;;;5021994;28;20036;-79
2021/12/08 03:54:38;;;;;;;13.52;9.65;;;;;;;;;;5024128;28;20025;-79
2021/12/08 03:57:05;;;;;;;9.00;7.45;;;;;;;;;;5023724;28;20083;-80
2021/12/08 03:59:32;;;;;;;14.63;7.95;;;;;;;;;;5020414;28;20254;-80
2021/12/08 04:01:58;;;;;;;10.73;7.30;;;;;;;;;;5022367;28;20241;-80
2021/12/08 04:04:27;;;;;;;9.35;7.70;;;;;;;;;;5090869;28;20028;-79
2021/12/08 04:06:55;;;;;;;10.85;9.27;;;;;;;;;;5080653;28;20043;-79
2021/12/08 04:09:31;;;;;;;9.57;7.18;;;;;;;;;;5097033;28;20044;-79
2021/12/08 04:11:58;;;;;;;10.40;8.60;;;;;;;;;;5073475;28;20028;-79
2021/12/08 04:14:26;;;;;;;16.48;10.32;;;;;;;;;;5070654;28;20036;-79
2021/12/08 04:16:54;;;;;;;10.10;8.55;;;;;;;;;;5081638;28;20024;-79
2021/12/08 04:19:22;;;;;;;12.35;9.48;;;;;;;;;;5093622;28;20102;-79
2021/12/08 04:21:49;;;;;;;11.27;7.43;;;;;;;;;;5098111;28;20032;-79
2021/12/08 04:24:15;;;;;;;10.65;8.63;;;2.90;99.90;;;;;;5090099;28;20032;-79
2021/12/08 04:26:55;;;;;;;14.07;9.80;;;;;;;;;;5089828;28;20174;-79
2021/12/08 04:29:27;;;;;;;12.38;9.02;;;4.90;99.90;;;;;;5091368;28;20229;-79
2021/12/08 04:31:53;;;;;;;11.05;7.97;;;;;;;;;;5091918;28;20024;-79
2021/12/08 04:34:24;;;;;;;10.38;8.98;;;;;;;;;;5084237;28;20111;-78
2021/12/08 04:36:53;;;;;;;12.02;8.32;;;;;;;;;;5081095;28;20046;-79
2021/12/08 04:39:24;;;;;;;10.23;7.95;;;;;;;;;;5094369;28;20495;-78
2021/12/08 04:41:57;;;;;;;10.18;7.68;;;;;;;;;;5095829;28;20032;-78
2021/12/08 05:03:35;;;;;;;13.65;10.88;;;5.10;99.90;;;;;;5094921;28;20487;-77
2021/12/08 05:08:41;;;;;;;12.82;9.60;;;;;;;;;;5105402;28;20180;-77
2021/12/08 05:11:19;;;;;;;10.57;8.32;;;;;;;;;;5098944;28;20038;-77
2021/12/08 05:13:47;;;;;;;13.57;9.63;;;;;;;;;;5097535;28;20333;-77
2021/12/08 05:16:13;;;;;;;15.48;10.82;;;;;;;;;;5092443;28;20143;-77
2021/12/08 05:18:42;;;;;;;11.30;7.97;;;;;;;;;;5066649;28;20032;-78
2021/12/08 05:21:14;;;;;;;11.85;7.40;;;;;;;;;;5076247;28;20087;-77
2021/12/08 05:23:42;;;;;;;13.98;9.73;;;;;;;;;;5094074;28;20063;-77
2021/12/08 05:26:12;;;;;;;13.43;9.65;;;;;;;;;;5102051;28;20193;-77
2021/12/08 05:28:39;;;;;;;10.52;9.25;;;;;;;;;;5095134;28;20292;-77
2021/12/08 05:31:09;;;;;;;14.23;8.68;;;;;;;;;;5089404;28;20034;-77
2021/12/08 05:33:37;;;;;;;14.40;9.38;;;5.10;99.90;;;;;;5095404;28;20043;-77
2021/12/08 05:36:04;;;;;;;12.25;8.10;;;;;;;;;;5095929;28;20362;-78
2021/12/08 05:38:31;;;;;;;9.82;6.80;;;;;;;;;;5089016;28;20034;-77
2021/12/08 05:41:19;;;;;;;10.55;7.30;;;5.00;99.90;;;;;;5081918;28;20048;-77
2021/12/08 05:43:47;;;;;;;11.63;7.13;;;5.00;99.90;;;;;;5108442;28;20240;-78
2021/12/08 05:46:14;;;;;;;10.82;7.53;;;;;;;;;;5096072;28;20320;-77
2021/12/08 05:48:40;;;;;;;9.88;6.57;;;;;;;;;;5098382;28;20468;-77
2021/12/08 05:51:11;;;;;;;12.00;8.60;;;5.00;99.90;;;;;;5094886;28;20047;-77
2021/12/08 05:53:40;;;;;;;8.60;6.00;;;4.90;99.90;;;;;;5076086;28;20037;-77
2021/12/08 05:56:07;;;;;;;10.25;6.35;;;;;;;;;;5096320;28;20109;-77
2021/12/08 05:58:34;;;;;;;8.60;5.85;;;4.80;99.90;;;;;;5100292;28;20019;-78
2021/12/08 06:01:12;;;;;;;8.30;5.47;;;;;;;;;;5093662;28;20262;-77
2021/12/08 06:03:40;;;;;;;6.20;4.65;;;;;;;;;;5082265;28;20100;-77
2021/12/08 06:06:07;;;;;;;8.90;5.28;;;4.80;99.90;;;;;;5094676;28;20101;-77
2021/12/08 06:08:33;;;;;;;7.38;4.90;;;;;;;;;;5087030;28;20057;-77
2021/12/08 06:11:01;;;;;;;10.18;5.72;;;;;;;;;;5108863;28;20039;-77
2021/12/08 06:13:27;;;;;;;9.05;5.22;;;;;;;;;;5084570;28;20028;-77
2021/12/08 06:15:53;;;;;;;7.95;5.07;;;;;;;;;;5085708;28;20156;-77
2021/12/08 06:18:22;;;;;;;9.55;5.32;;;;;;;;;;5089401;28;20047;-78
2021/12/08 06:20:49;;;;;;;9.00;5.93;;;;;;;;;;5091155;28;20071;-78
2021/12/08 06:23:15;;;;;;;10.10;5.90;;;;;;;;;;5080140;28;20052;-78
2021/12/08 06:25:41;;;;;;;12.07;6.65;;;;;;;;;;5103223;28;20044;-78
2021/12/08 06:28:08;;;;;;;8.95;6.03;;;;;;;;;;5091043;28;20269;-78
2021/12/08 06:30:35;;;;;;;12.45;6.97;;;;;;;;;;5095105;28;20126;-77
2021/12/08 06:33:02;;;;;;;10.75;6.70;;;5.30;99.90;;;;;;5093778;28;20237;-78
2021/12/08 06:35:37;;;;;;;9.68;5.97;;;;;;;;;;5069952;28;20142;-77
2021/12/08 06:38:03;;;;;;;12.02;5.97;;;;;;;;;;5075048;28;20051;-77
2021/12/08 06:40:36;;;;;;;7.97;6.00;;;;;;;;;;5089330;28;20047;-78
2021/12/08 06:43:04;;;;;;;9.73;5.60;;;;;;;;;;5080175;28;20029;-80
2021/12/08 06:45:33;;;;;;;10.15;5.32;;;;;;;;;;5080785;28;20032;-78
2021/12/08 06:48:02;;;;;;;12.77;5.15;;;;;;;;;;5091435;28;20052;-79
2021/12/08 06:50:32;;;;;;;9.50;5.00;;;;;;;;;;5076524;28;20067;-79
2021/12/08 06:52:59;;;;;;;11.07;5.40;;;4.70;99.90;;;;;;5064760;28;20028;-79
2021/12/08 06:55:39;;;;;;;11.00;4.72;;;4.90;99.90;;;;;;5091772;28;20273;-79
2021/12/08 06:58:14;;;;;;;13.30;5.47;;;;;;;;;;5092400;28;20039;-79
2021/12/08 07:03:44;;;;;;;10.27;5.82;;;;;;;;;;5091294;28;20036;-80
2021/12/08 07:06:48;;;;;;;8.48;4.13;;;;;;;;;;5085092;28;20036;-79
2021/12/08 07:09:19;;;;;;;9.68;4.40;;;;;;;;;;5081169;28;20031;-79
2021/12/08 07:11:46;;;;;;;15.25;6.07;;;;;;;;;;5086534;28;20032;-79
2021/12/08 07:14:13;;;;;;;11.68;4.75;;;;;;;;;;5097025;28;20081;-79
2021/12/08 07:16:42;;;;;;;10.80;5.15;;;;;;;;;;5083921;28;20047;-80
2021/12/08 07:19:22;;;;;;;9.50;5.00;;;;;;;;;;5084491;28;20097;-79
2021/12/08 07:21:49;;;;;;;10.95;3.95;;;;;;;;;;5081939;28;20051;-79
2021/12/08 07:24:21;;;;;;;6.30;3.88;;;;;;;;;;5079695;28;20032;-79
2021/12/08 07:26:48;;;;;;;9.23;4.45;;;;;;;;;;5088137;28;20032;-79
2021/12/08 07:29:16;;;;;;;8.02;4.68;;;;;;;;;;5093830;28;20047;-78
2021/12/08 07:31:48;;;;;;;9.95;3.78;;;;;;;;;;5105460;28;20040;-78
2021/12/08 07:34:18;;;;;;;12.43;5.00;;;;;;;;;;5090843;28;20031;-78
2021/12/08 07:36:45;;;;;;;6.95;3.92;;;;;;;;;;5104114;28;20320;-79
2021/12/08 07:39:16;;;;;;;10.88;6.00;;;;;;;;;;5097572;28;20051;-78
2021/12/08 07:41:47;;;;;;;11.30;4.50;;;5.20;99.90;;;;;;5096213;28;20038;-78
2021/12/08 07:44:14;;;;;;;10.35;4.75;;;;;;;;;;5102914;28;20032;-78
2021/12/08 07:46:48;;;;;;;9.73;4.82;;;;;;;;;;5092242;28;20265;-78
2021/12/08 07:49:47;;;;;;;8.00;3.70;;;;;;;;;;5097628;28;20027;-78
2021/12/08 07:52:16;;;;;;;11.80;4.53;;;;;;;;;;5045780;28;20047;-78
2021/12/08 07:54:42;;;;;;;8.25;4.60;;;;;;;;;;5081215;28;20032;-78
2021/12/08 07:57:11;;;;;;;7.15;3.88;;;;;;;;;;5098757;28;20060;-78
2021/12/08 07:59:41;;;;;;;7.75;4.05;;;;;;;;;;5080747;28;20121;-78
2021/12/08 08:02:08;;;;;;;7.28;3.97;;;;;;;;;;5077075;28;20043;-78
2021/12/08 08:04:37;;;;;;;11.30;4.72;;;;;;;;;;5084505;28;20095;-78
2021/12/08 08:07:04;;;;;;;8.57;4.43;;;;;;;;;;5091218;28;20115;-78
2021/12/08 08:09:35;;;;;;;10.10;4.05;;;5.20;99.90;;;;;;5081363;28;20047;-78
2021/12/08 08:12:02;;;;;;;10.18;4.20;;;;;;;;;;5089889;28;20036;-79
2021/12/08 08:14:32;;;;;;;7.43;4.00;;;;;;;;;;5076904;28;20024;-78
2021/12/08 08:17:00;;;;;;;7.97;4.38;;;;;;;;;;5073886;28;20028;-77
2021/12/08 08:19:29;;;;;;;10.43;3.80;;;;;;;;;;5099988;28;20067;-77
2021/12/08 08:22:01;;;;;;;7.43;3.60;;;;;;;;;;5088104;28;20029;-77
2021/12/08 08:24:27;;;;;;;5.95;2.90;;;;;;;;;;5078005;28;20043;-78
2021/12/08 08:26:56;;;;;;;9.43;3.22;;;;;;;;;;5104264;28;20032;-79
2021/12/08 08:29:22;;;;;;;9.25;3.28;;;;;;;;;;5086221;28;20081;-79
2021/12/08 08:31:56;;;;;;;6.72;3.42;;;;;;;;;;5074389;28;20035;-79
2021/12/08 08:34:23;;;;;;;6.32;3.60;;;;;;;;;;5101986;28;20362;-78
2021/12/08 08:36:50;;;;;;;8.45;3.20;;;;;;;;;;5102882;28;20040;-79
2021/12/08 08:39:20;;;;;;;5.25;2.75;;;;;;;;;;5075143;28;20020;-82
2021/12/08 08:42:01;;;;;;;8.98;2.90;;;;;;;;;;5087710;28;20038;-82
2021/12/08 08:44:30;;;;;;;4.93;2.15;;;;;;;;;;5092347;28;20041;-79
2021/12/08 08:46:57;;;;;;;9.52;3.80;;;;;;;;;;5104033;28;20024;-80
2021/12/08 08:49:27;;;;;;;8.57;2.50;;;;;;;;;;5097914;28;20200;-79
2021/12/08 08:52:02;;;;;;;6.65;3.17;;;;;;;;;;5096014;28;20028;-79
2021/12/08 08:54:31;;;;;;;10.75;3.63;;;;;;;;;;5089275;28;20373;-79
2021/12/08 08:57:04;;;;;;;11.07;3.60;;;;;;;;;;5082268;28;20043;-79
2021/12/08 08:59:33;;;;;;;8.73;3.25;;;;;;;;;;5097788;28;20044;-79
2021/12/08 09:02:03;;;;;;;7.60;3.47;;;;;;;;;;5097614;28;20066;-80
2021/12/08 09:04:34;;;;;;;12.50;2.92;;;;;;;;;;5095544;28;20303;-80
2021/12/08 09:07:02;;;;;;;9.98;2.75;;;;;;;;;;5082754;28;20067;-80
2021/12/08 09:09:33;;;;;;;9.68;3.55;;;4.80;99.90;;;;;;5084882;28;20086;-82
2021/12/08 09:12:05;;;;;;;13.70;4.18;;;;;;;;;;5071226;28;20093;-82
2021/12/08 09:14:34;;;;;;;10.18;2.88;;;;;;;;;;5093137;28;20042;-82
2021/12/08 09:17:04;;;;;;;12.13;3.80;;;;;;;;;;5095217;28;20324;-80
2021/12/08 09:19:35;;;;;;;6.28;2.85;;;;;;;;;;5068612;28;20235;-82
2021/12/08 09:22:14;;;;;;;7.50;2.38;;;;;;;;;;5082329;28;20025;-82
2021/12/08 09:24:58;;;;;;;7.93;2.60;;;5.00;99.90;;;;;;5092042;28;20043;-82
2021/12/08 09:27:35;;;;;;;5.70;2.67;;;5.00;99.90;;;;;;5087148;28;20103;-82
2021/12/08 09:30:07;;;;;;;8.15;2.47;;;;;;;;;;5081312;28;20040;-81
2021/12/08 09:32:42;;;;;;;9.82;2.60;;;5.10;99.90;;;;;;5098322;28;20063;-81
2021/12/08 09:35:11;;;;;;;5.90;2.50;;;4.90;99.90;;;;;;5091172;28;20032;-81
2021/12/08 09:37:43;;;;;;;13.10;3.95;;;;;;;;;;5085795;28;20289;-81
2021/12/08 09:40:14;;;;;;;10.23;3.15;;;;;;;;;;5069354;28;20036;-82
2021/12/08 09:42:42;;;;;;;9.15;2.90;;;;;;;;;;5059743;28;20096;-80
2021/12/08 09:45:08;;;;;;;11.73;3.20;;;;;;;;;;5085516;28;20040;-79
2021/12/08 09:47:35;;;;;;;8.60;2.25;;;;;;;;;;5069438;28;20376;-79
2021/12/08 09:50:02;;;;;;;7.95;2.70;;;;;;;;;;5074596;28;20030;-79
2021/12/08 09:52:28;;;;;;;10.30;3.28;;;;;;;;;;5083624;28;20173;-79
2021/12/08 09:54:56;;;;;;;14.02;3.40;;;;;;;;;;5057741;28;20145;-80
2021/12/08 09:57:23;;;;;;;6.32;2.40;;;;;;;;;;5064988;28;20200;-80
2021/12/08 09:59:49;;;;;;;9.95;3.33;;;;;;;;;;5061774;28;20027;-80
2021/12/08 10:02:18;;;;;;;8.55;2.88;;;;;;;;;;5081602;28;20086;-79
2021/12/08 10:04:45;;;;;;;6.25;2.38;;;;;;;;;;5086003;28;20048;-80
2021/12/08 10:07:13;;;;;;;10.05;3.20;;;;;;;;;;5087812;28;20058;-79
2021/12/08 10:09:40;;;;;;;7.82;3.15;;;;;;;;;;5056592;28;20025;-79
2021/12/08 10:12:06;;;;;;;7.00;2.70;;;6.90;99.90;;;;;;5043379;28;20037;-79
2021/12/08 10:14:33;;;;;;;12.35;3.67;;;;;;;;;;5085707;28;20277;-79
2021/12/08 10:16:59;;;;;;;9.35;2.70;;;;;;;;;;5088749;28;20047;-79
2021/12/08 10:19:25;;;;;;;8.02;2.53;;;;;;;;;;5057082;28;20047;-80
2021/12/08 10:21:51;;;;;;;12.73;4.15;;;;;;;;;;5090765;28;20054;-79
2021/12/08 10:24:20;;;;;;;9.02;3.03;;;;;;;;;;5071106;28;20039;-79
2021/12/08 10:26:47;;;;;;;9.85;2.47;;;;;;;;;;5074723;28;20173;-79
2021/12/08 10:29:13;;;;;;;12.95;3.30;;;;;;;;;;5066698;28;20237;-79
2021/12/08 10:31:42;;;;;;;10.32;3.15;;;;;;;;;;5073182;28;20032;-79
2021/12/08 10:36:56;;;;;;;8.00;2.85;;;;;;;;;;5083748;28;20459;-79
2021/12/08 10:39:27;;;;;;;9.27;3.10;;;;;;;;;;5084003;28;20166;-78
2021/12/08 10:41:54;;;;;;;11.57;3.50;;;;;;;;;;5079275;28;20281;-79
2021/12/08 10:44:22;;;;;;;10.90;3.70;;;;;;;;;;5065577;28;20040;-79
2021/12/08 10:46:51;;;;;;;7.30;2.85;;;;;;;;;;5085310;28;20069;-79
2021/12/08 10:49:25;;;;;;;11.55;3.25;;;;;;;;;;5083696;28;20307;-79
2021/12/08 10:54:36;;;;;;;12.02;3.55;;;;;;;;;;5091744;28;20059;-79
2021/12/08 10:57:05;;;;;;;12.02;3.30;;;;;;;;;;5077076;28;20032;-79
2021/12/08 10:59:50;;;;;;;9.38;3.40;;;;;;;;;;5077034;28;20052;-79
2021/12/08 11:02:35;;;;;;;10.50;3.00;;;;;;;;;;5070317;28;20036;-79
2021/12/08 11:05:01;;;;;;;9.02;3.10;;;;;;;;;;5081335;28;20031;-78
2021/12/08 11:07:28;;;;;;;5.72;2.13;;;;;;;;;;5087108;28;20036;-77
2021/12/08 11:09:54;;;;;;;6.55;2.53;;;5.90;99.90;;;;;;5081559;28;20264;-76
2021/12/08 11:12:21;;;;;;;14.02;3.20;;;;;;;;;;5063413;28;20227;-77
2021/12/08 11:14:50;;;;;;;10.25;3.30;;;;;;;;;;5082564;28;20040;-77
2021/12/08 11:17:24;;;;;;;8.82;3.08;;;;;;;;;;5070984;28;20044;-77
2021/12/08 11:19:50;;;;;;;10.20;3.22;;;;;;;;;;5085206;28;20047;-77
2021/12/08 11:22:17;;;;;;;14.13;3.67;;;;;;;;;;5067099;28;20064;-76
2021/12/08 11:24:56;;;;;;;9.05;2.80;;;;;;;;;;5080280;28;20028;-77
2021/12/08 11:27:29;;;;;;;8.55;3.65;;;;;;;;;;5080818;28;20281;-77
2021/12/08 11:29:56;;;;;;;12.40;4.18;;;;;;;;;;5085519;28;20180;-78
2021/12/08 11:32:24;;;;;;;13.32;3.47;;;;;;;;;;5091021;28;20039;-77
2021/12/08 11:34:51;;;;;;;6.53;2.58;;;;;;;;;;5077034;28;20068;-77
2021/12/08 11:37:22;;;;;;;12.23;3.25;;;;;;;;;;5066177;28;20047;-77
2021/12/08 11:39:58;;;;;;;7.93;3.20;;;;;;;;;;5079384;28;20063;-76
2021/12/08 11:42:42;;;;;;;7.10;3.80;;;;;;;;;;5073525;28;20055;-77
2021/12/08 11:45:13;;;;;;;9.37;2.30;;;;;;;;;;5061487;28;20331;-76
2021/12/08 11:47:42;;;;;;;10.43;3.10;;;;;;;;;;5078619;28;20048;-76
2021/12/08 11:50:10;;;;;;;10.50;2.95;;;;;;;;;;5079943;28;20027;-76
2021/12/08 11:52:36;;;;;;;8.07;2.97;;;;;;;;;;5077510;28;20047;-78
2021/12/08 11:55:07;;;;;;;8.35;3.22;;;;;;;;;;5084351;28;20093;-78
2021/12/08 11:57:36;;;;;;;13.07;3.38;;;;;;;;;;5095822;28;20060;-78
2021/12/08 12:00:14;;;;;;;11.35;3.45;;;;;;;;;;5087146;28;20058;-78
2021/12/08 12:02:43;;;;;;;11.57;4.15;;;;;;;;;;5065206;28;20113;-78
2021/12/08 12:05:11;;;;;;;7.82;3.20;;;;;;;;;;5084014;28;20040;-81
2021/12/08 12:07:39;;;;;;;8.48;3.75;;;;;;;;;;5082407;28;20074;-78
2021/12/08 12:10:06;;;;;;;10.95;3.40;;;;;;;;;;5072571;28;20028;-78
2021/12/08 12:12:33;;;;;;;6.70;4.13;;;;;;;;;;5085028;28;20224;-78
2021/12/08 12:14:59;;;;;;;5.95;3.55;;;;;;;;;;5087646;28;20036;-78
2021/12/08 12:17:25;;;;;;;8.95;3.53;;;;;;;;;;5083539;28;20031;-78
2021/12/08 12:20:16;;;;;;;10.73;3.67;;;;;;;;;;5085703;28;20067;-78
2021/12/08 12:23:03;;;;;;;8.48;4.18;;;;;;;;;;5058371;28;20323;-77
2021/12/08 12:25:48;;;;;;;7.45;3.10;;;;;;;;;;5087097;28;20354;-76
2021/12/08 12:28:55;;;;;;;11.77;3.38;;;5.70;99.90;;;;;;5069174;28;20028;-76
2021/12/08 12:31:39;;;;;;;10.00;4.07;;;;;;;;;;5074193;28;20047;-76
2021/12/08 12:34:22;;;;;;;5.10;3.25;;;;;;;;;;5086384;28;20347;-76
2021/12/08 12:36:48;;;;;;;10.82;3.97;;;;;;;;;;5067827;28;20178;-76
2021/12/08 12:39:16;;;;;;;5.82;2.67;;;;;;;;;;5087990;28;20245;-76
2021/12/08 12:41:43;;;;;;;8.68;4.40;;;;;;;;;;5086886;28;20063;-76
2021/12/08 12:44:18;;;;;;;6.65;3.25;;;;;;;;;;5084089;28;20120;-75
2021/12/08 12:47:03;;;;;;;8.80;3.20;;;;;;;;;;5069330;28;20041;-76
2021/12/08 12:49:30;;;;;;;8.05;3.53;;;;;;;;;;5073402;28;20044;-76
2021/12/08 12:52:06;;;;;;;6.05;3.58;;;;;;;;;;5069884;28;20043;-76
2021/12/08 12:54:33;;;;;;;4.65;2.85;;;5.80;99.90;;;;;;5062838;28;20227;-76
2021/12/08 12:56:59;;;;;;;7.78;3.90;;;;;;;;;;5087202;28;20063;-77
2021/12/08 12:59:38;;;;;;;8.35;3.70;;;;;;;;;;5085797;28;20041;-77
2021/12/08 13:02:06;;;;;;;4.43;2.25;;;;;;;;;;5087119;28;20024;-78
2021/12/08 13:04:36;;;;;;;9.88;3.00;;;6.30;99.90;;;;;;5086442;28;20208;-78
2021/12/08 13:07:06;;;;;;;5.88;2.90;;;;;;;;;;5091193;28;20166;-77
2021/12/08 13:09:53;;;;;;;9.30;2.95;;;;;;;;;;5080038;28;20657;-76
2021/12/08 13:12:34;;;;;;;9.43;3.25;;;;;;;;;;5084374;28;20293;-77
2021/12/08 13:15:18;;;;;;;5.25;3.13;;;;;;;;;;5081886;28;20032;-77
2021/12/08 13:18:05;;;;;;;8.82;2.90;;;;;;;;;;5088297;28;20051;-77
2021/12/08 13:20:38;;;;;;;6.88;2.83;;;;;;;;;;5082645;28;20028;-76
2021/12/08 13:23:06;;;;;;;6.20;2.95;;;;;;;;;;5069828;28;20047;-76
2021/12/08 13:25:56;;;;;;;7.68;2.67;;;;;;;;;;5070810;28;20070;-76
2021/12/08 13:28:32;;;;;;;9.18;3.35;;;;;;;;;;5085294;28;20046;-77
2021/12/08 13:31:25;;;;;;;9.57;3.25;;;6.00;99.90;;;;;;5090602;28;20048;-77
2021/12/08 13:33:51;;;;;;;12.15;2.85;;;;;;;;;;5069369;28;20082;-77
2021/12/08 13:36:20;;;;;;;7.85;2.55;;;;;;;;;;5085517;28;20051;-77
2021/12/08 13:38:59;;;;;;;7.20;3.15;;;;;;;;;;5079467;28;21211;-77
2021/12/08 13:41:30;;;;;;;6.55;2.60;;;;;;;;;;5084583;28;20021;-77
2021/12/08 13:43:57;;;;;;;7.53;2.90;;;;;;;;;;5088535;28;20094;-77
2021/12/08 13:46:42;;;;;;;4.30;2.13;;;;;;;;;;5082515;28;20024;-77
2021/12/08 13:49:16;;;;;;;3.70;2.25;;;;;;;;;;5075145;28;20290;-77
2021/12/08 13:52:02;;;;;;;6.00;2.43;;;;;;;;;;5067788;28;20040;-77
2021/12/08 13:54:29;;;;;;;5.03;2.70;;;;;;;;;;5060885;28;20024;-76
2021/12/08 13:56:55;;;;;;;5.57;2.58;;;;;;;;;;5058319;28;20028;-78
2021/12/08 13:59:40;;;;;;;5.78;2.47;;;;;;;;;;5092389;28;20024;-76
2021/12/08 14:02:24;;;;;;;4.97;2.60;;;;;;;;;;5067273;28;20055;-77
2021/12/08 14:04:58;;;;;;;9.80;2.92;;;;;;;;;;5069222;28;20043;-76
2021/12/08 14:07:24;;;;;;;10.63;2.53;;;;;;;;;;5081273;28;20028;-77
2021/12/08 14:09:55;;;;;;;5.03;2.53;;;;;;;;;;5063350;28;20293;-77
2021/12/08 14:12:22;;;;;;;7.70;2.75;;;;;;;;;;5086117;28;20163;-76
2021/12/08 14:14:58;;;;;;;6.32;2.60;;;;;;;;;;5075303;28;20044;-76
2021/12/08 14:17:31;;;;;;;8.23;3.00;;;;;;;;;;5075438;28;20076;-77
2021/12/08 14:19:57;;;;;;;11.65;3.75;;;;;;;;;;5081512;28;20044;-77
2021/12/08 14:22:36;;;;;;;6.85;2.65;;;;;;;;;;5067981;28;20035;-77
2021/12/08 14:25:03;;;;;;;5.32;2.40;;;;;;;;;;5062424;28;20285;-77
2021/12/08 14:27:30;;;;;;;7.90;2.45;;;6.30;99.90;;;;;;5086820;28;20034;-77
2021/12/08 14:29:57;;;;;;;7.75;2.47;;;;;;;;;;5085945;28;20028;-77
2021/12/08 14:32:23;;;;;;;7.57;2.88;;;;;;;;;;5084877;28;20036;-77
2021/12/08 14:34:50;;;;;;;6.32;2.28;;;;;;;;;;5086341;28;20235;-77
2021/12/08 14:37:16;;;;;;;5.15;2.28;;;;;;;;;;5061962;28;20281;-77
2021/12/08 14:39:48;;;;;;;4.38;1.75;;;;;;;;;;5092328;28;20035;-77
2021/12/08 14:42:22;;;;;;;7.35;2.03;;;;;;;;;;5074778;28;20274;-77
2021/12/08 14:44:53;;;;;;;4.70;1.95;;;;;;;;;;5101590;28;20028;-77
2021/12/08 14:47:23;;;;;;;7.07;2.40;;;;;;;;;;5088664;28;20103;-77
2021/12/08 14:49:54;;;;;;;7.53;2.08;;;;;;;;;;5085117;28;20106;-77
2021/12/08 14:52:20;;;;;;;8.75;2.55;;;;;;;;;;5070275;28;20082;-77
2021/12/08 14:54:51;;;;;;;4.53;1.67;;;;;;;;;;5091082;28;20066;-77
2021/12/08 14:57:24;;;;;;;9.35;2.20;;;;;;;;;;5072789;28;20047;-77
2021/12/08 14:59:59;;;;;;;5.53;1.75;;;;;;;;;;5087538;28;20044;-77
2021/12/08 15:02:29;;;;;;;9.45;2.40;;;;;;;;;;5087937;28;20368;-77
2021/12/08 15:04:56;;;;;;;5.80;1.85;;;;;;;;;;5081477;28;20086;-77
2021/12/08 15:07:23;;;;;;;6.20;2.40;;;;;;;;;;5065996;28;20087;-77
2021/12/08 15:10:08;;;;;;;8.57;2.83;;;5.50;99.90;;;;;;5084371;28;20086;-77
2021/12/08 15:12:36;;;;;;;6.72;1.83;;;;;;;;;;5080074;28;20039;-77
2021/12/08 15:15:22;;;;;;;7.43;1.92;;;;;;;;;;5069110;28;20307;-75
2021/12/08 15:17:49;;;;;;;6.07;2.45;;;;;;;;;;5085616;28;20182;-75
2021/12/08 15:20:17;;;;;;;10.10;3.58;;;5.60;99.90;;;;;;5077595;28;20056;-75
2021/12/08 15:22:45;;;;;;;4.95;2.40;;;;;;;;;;5074406;28;20047;-74
2021/12/08 15:25:17;;;;;;;7.22;2.80;;;;;;;;;;5085343;28;20282;-75
2021/12/08 15:27:45;;;;;;;7.97;2.53;;;;;;;;;;5081272;28;20067;-75
2021/12/08 15:30:13;;;;;;;7.50;3.13;;;;;;;;;;5091435;28;20040;-75
2021/12/08 15:32:39;;;;;;;4.90;2.55;;;;;;;;;;5079139;28;20020;-75
2021/12/08 15:35:10;;;;;;;9.07;2.47;;;;;;;;;;5079521;28;20048;-75
2021/12/08 15:37:49;;;;;;;7.93;2.08;;;;;;;;;;5093553;28;20050;-75